Malmesbury, United Kingdom
Current Conditions -  °F | °C
As of 9:33 AM on Tuesday 21 Oct 2014 (Local Time) from EGVA Reporting Station
Light Rain Light Rain  
Wind Chill: 54°   Ceiling: 4700
Heat Index: 54°   Visibility: 6mi
Dew Point: 41°   Wind: 22mph
Humidity: 62%   Direction: 280°W
Pressure: 29.63"   Gusts: 29mph
Location:  51.58°N, 2.1°W
Report Text: EGVA 210833Z AUTO 28019G25KT 9999 -RA SCT038 BKN047 BKN065 12/05 A2963 RMK AO2
Loading
Personal Weather Stations






























Interactive Weather Map
Tropical Storm Tracking
New forecast layout! Learn more

10-Day Weather Forecast

Advertisements
Track Severe Weather on mobile